sensor_id;sensor_type;location;lat;lon;timestamp;pressure;altitude;pressure_sealevel;temperature;humidity
28181;BME280;15464;50.988;10.318;2023-02-21T00:01:37;99182.72;;;7.79;93.33
28181;BME280;15464;50.988;10.318;2023-02-21T00:04:22;99171.00;;;7.83;93.04
28181;BME280;15464;50.988;10.318;2023-02-21T00:07:07;99193.06;;;7.82;93.21
28181;BME280;15464;50.988;10.318;2023-02-21T00:09:52;99182.41;;;7.84;92.40
28181;BME280;15464;50.988;10.318;2023-02-21T00:12:38;99186.09;;;7.81;92.59
28181;BME280;15464;50.988;10.318;2023-02-21T00:15:23;99183.16;;;7.86;92.69
28181;BME280;15464;50.988;10.318;2023-02-21T00:18:08;99178.47;;;7.89;92.32
28181;BME280;15464;50.988;10.318;2023-02-21T00:20:53;99181.34;;;7.86;92.01
28181;BME280;15464;50.988;10.318;2023-02-21T00:23:39;99192.22;;;7.82;91.90
28181;BME280;15464;50.988;10.318;2023-02-21T00:26:23;99188.63;;;7.83;92.15
28181;BME280;15464;50.988;10.318;2023-02-21T00:29:09;99187.78;;;7.82;91.99
28181;BME280;15464;50.988;10.318;2023-02-21T00:31:54;99188.63;;;7.83;92.06
28181;BME280;15464;50.988;10.318;2023-02-21T00:34:39;99187.78;;;7.82;92.13
28181;BME280;15464;50.988;10.318;2023-02-21T00:37:25;99180.09;;;7.79;92.41
28181;BME280;15464;50.988;10.318;2023-02-21T00:40:11;99187.06;;;7.80;91.80
28181;BME280;15464;50.988;10.318;2023-02-21T00:42:57;99161.59;;;7.79;92.31
28181;BME280;15464;50.988;10.318;2023-02-21T00:45:42;99172.16;;;7.79;92.31
28181;BME280;15464;50.988;10.318;2023-02-21T00:48:27;99186.31;;;7.78;91.96
28181;BME280;15464;50.988;10.318;2023-02-21T00:51:13;99182.94;;;7.76;92.08
28181;BME280;15464;50.988;10.318;2023-02-21T00:53:58;99181.38;;;7.74;92.30
28181;BME280;15464;50.988;10.318;2023-02-21T00:56:44;99175.97;;;7.75;92.19
28181;BME280;15464;50.988;10.318;2023-02-21T00:59:29;99170.69;;;7.75;92.43
28181;BME280;15464;50.988;10.318;2023-02-21T01:02:14;99172.78;;;7.70;92.53
28181;BME280;15464;50.988;10.318;2023-02-21T01:04:59;99166.66;;;7.69;93.00
28181;BME280;15464;50.988;10.318;2023-02-21T01:07:45;99168.47;;;7.69;92.40
28181;BME280;15464;50.988;10.318;2023-02-21T01:10:30;99161.28;;;7.71;92.29
28181;BME280;15464;50.988;10.318;2023-02-21T01:13:15;99166.47;;;7.73;92.13
28181;BME280;15464;50.988;10.318;2023-02-21T01:16:00;99153.38;;;7.71;92.59
28181;BME280;15464;50.988;10.318;2023-02-21T01:18:45;99156.97;;;7.70;92.81
28181;BME280;15464;50.988;10.318;2023-02-21T01:21:31;99157.19;;;7.67;92.83
28181;BME280;15464;50.988;10.318;2023-02-21T01:24:16;99149.03;;;7.70;92.23
28181;BME280;15464;50.988;10.318;2023-02-21T01:27:01;99158.03;;;7.67;93.04
28181;BME280;15464;50.988;10.318;2023-02-21T01:29:47;99136.69;;;7.70;92.44
28181;BME280;15464;50.988;10.318;2023-02-21T01:32:32;99137.75;;;7.68;92.89
28181;BME280;15464;50.988;10.318;2023-02-21T01:35:17;99137.75;;;7.68;92.59
28181;BME280;15464;50.988;10.318;2023-02-21T01:38:03;99127.81;;;7.72;91.98
28181;BME280;15464;50.988;10.318;2023-02-21T01:40:48;99130.56;;;7.70;91.79
28181;BME280;15464;50.988;10.318;2023-02-21T01:43:33;99131.41;;;7.70;92.19
28181;BME280;15464;50.988;10.318;2023-02-21T01:46:19;99136.59;;;7.72;91.98
28181;BME280;15464;50.988;10.318;2023-02-21T01:49:09;99131.31;;;7.72;91.71
28181;BME280;15464;50.988;10.318;2023-02-21T01:51:56;99138.28;;;7.73;91.58
28181;BME280;15464;50.988;10.318;2023-02-21T01:54:48;99133.72;;;7.75;91.29
28181;BME280;15464;50.988;10.318;2023-02-21T01:57:35;99139.97;;;7.74;91.04
28181;BME280;15464;50.988;10.318;2023-02-21T02:00:20;99139.84;;;7.76;90.75
28181;BME280;15464;50.988;10.318;2023-02-21T02:03:07;99125.69;;;7.77;91.04
28181;BME280;15464;50.988;10.318;2023-02-21T02:06:14;99133.72;;;7.75;91.46
28181;BME280;15464;50.988;10.318;2023-02-21T02:09:17;99122.94;;;7.78;91.32
28181;BME280;15464;50.988;10.318;2023-02-21T02:15:21;99120.50;;;7.75;91.12
28181;BME280;15464;50.988;10.318;2023-02-21T02:43:08;99128.44;;;7.75;91.13
28181;BME280;15464;50.988;10.318;2023-02-21T02:45:42;99124.84;;;7.76;90.66
28181;BME280;15464;50.988;10.318;2023-02-21T02:48:15;99130.13;;;7.76;90.42
28181;BME280;15464;50.988;10.318;2023-02-21T02:50:46;99132.56;;;7.79;90.78
28181;BME280;15464;50.988;10.318;2023-02-21T02:53:20;99133.72;;;7.75;90.49
28181;BME280;15464;50.988;10.318;2023-02-21T02:55:51;99138.56;;;7.81;90.33
28181;BME280;15464;50.988;10.318;2023-02-21T02:58:21;99134.78;;;7.73;90.70
28181;BME280;15464;50.988;10.318;2023-02-21T03:01:58;99135.41;;;7.76;90.48
28181;BME280;15464;50.988;10.318;2023-02-21T03:15:14;99144.28;;;7.75;90.42
28181;BME280;15464;50.988;10.318;2023-02-21T03:17:48;99145.56;;;7.69;90.47
28181;BME280;15464;50.988;10.318;2023-02-21T03:20:19;99140.91;;;7.73;90.91
28181;BME280;15464;50.988;10.318;2023-02-21T03:22:47;99142.81;;;7.71;90.61
28181;BME280;15464;50.988;10.318;2023-02-21T03:25:16;99133.09;;;7.72;90.47
28181;BME280;15464;50.988;10.318;2023-02-21T03:27:44;99136.59;;;7.72;91.12
28181;BME280;15464;50.988;10.318;2023-02-21T03:30:11;99135.63;;;7.73;90.67
28181;BME280;15464;50.988;10.318;2023-02-21T03:32:43;99135.00;;;7.69;90.56
28181;BME280;15464;50.988;10.318;2023-02-21T03:35:12;99134.28;;;7.67;91.02
28181;BME280;15464;50.988;10.318;2023-02-21T03:37:45;99118.53;;;7.66;91.50
28181;BME280;15464;50.988;10.318;2023-02-21T03:42:43;99115.38;;;7.61;91.57
28181;BME280;15464;50.988;10.318;2023-02-21T03:45:10;99106.72;;;7.59;91.55
28181;BME280;15464;50.988;10.318;2023-02-21T03:47:36;99096.16;;;7.59;91.45
28181;BME280;15464;50.988;10.318;2023-02-21T03:50:03;99093.41;;;7.60;91.49
28181;BME280;15464;50.988;10.318;2023-02-21T03:52:30;99078.63;;;7.58;92.12
28181;BME280;15464;50.988;10.318;2023-02-21T03:54:57;99088.16;;;7.60;91.63
28181;BME280;15464;50.988;10.318;2023-02-21T03:57:23;99090.88;;;7.59;91.69
28181;BME280;15464;50.988;10.318;2023-02-21T03:59:50;99101.63;;;7.56;92.24
28181;BME280;15464;50.988;10.318;2023-02-21T04:02:17;99103.56;;;7.54;92.13
28181;BME280;15464;50.988;10.318;2023-02-21T04:04:44;99107.34;;;7.50;92.40
28181;BME280;15464;50.988;10.318;2023-02-21T04:07:15;99108.34;;;7.49;92.54
28181;BME280;15464;50.988;10.318;2023-02-21T04:09:42;99108.44;;;7.47;92.57
28181;BME280;15464;50.988;10.318;2023-02-21T04:12:09;99118.34;;;7.44;93.11
28181;BME280;15464;50.988;10.318;2023-02-21T04:14:36;99110.31;;;7.45;93.13
28181;BME280;15464;50.988;10.318;2023-02-21T04:17:03;99109.59;;;7.43;93.02
28181;BME280;15464;50.988;10.318;2023-02-21T04:19:30;99114.03;;;7.43;93.26
28181;BME280;15464;50.988;10.318;2023-02-21T04:21:57;99107.91;;;7.42;93.09
28181;BME280;15464;50.988;10.318;2023-02-21T04:24:23;99114.97;;;7.42;93.45
28181;BME280;15464;50.988;10.318;2023-02-21T04:26:50;99116.88;;;7.40;93.05
28181;BME280;15464;50.988;10.318;2023-02-21T04:29:17;99123.84;;;7.41;93.46
28181;BME280;15464;50.988;10.318;2023-02-21T04:31:44;99111.81;;;7.37;93.53
28181;BME280;15464;50.988;10.318;2023-02-21T04:34:11;99116.88;;;7.40;93.50
28181;BME280;15464;50.988;10.318;2023-02-21T04:36:38;99110.97;;;7.36;93.37
28181;BME280;15464;50.988;10.318;2023-02-21T04:39:06;99103.16;;;7.35;94.10
28181;BME280;15464;50.988;10.318;2023-02-21T04:41:33;99102.41;;;7.33;94.18
28181;BME280;15464;50.988;10.318;2023-02-21T04:43:59;99091.16;;;7.31;94.24
28181;BME280;15464;50.988;10.318;2023-02-21T04:46:26;99097.88;;;7.35;94.72
28181;BME280;15464;50.988;10.318;2023-02-21T04:48:53;99098.22;;;7.30;94.37
28181;BME280;15464;50.988;10.318;2023-02-21T04:51:22;99094.72;;;7.29;95.21
28181;BME280;15464;50.988;10.318;2023-02-21T04:53:50;99087.66;;;7.30;95.50
28181;BME280;15464;50.988;10.318;2023-02-21T04:56:18;99098.22;;;7.30;95.56
28181;BME280;15464;50.988;10.318;2023-02-21T04:58:46;99090.81;;;7.22;95.52
28181;BME280;15464;50.988;10.318;2023-02-21T05:01:14;99096.00;;;7.24;95.55
28181;BME280;15464;50.988;10.318;2023-02-21T05:03:41;99088.94;;;7.24;95.75
28181;BME280;15464;50.988;10.318;2023-02-21T05:06:08;99086.06;;;7.27;95.77
28181;BME280;15464;50.988;10.318;2023-02-21T05:08:35;99095.69;;;7.28;95.69
28181;BME280;15464;50.988;10.318;2023-02-21T05:11:02;99094.59;;;7.18;96.01
28181;BME280;15464;50.988;10.318;2023-02-21T05:13:29;99092.94;;;7.17;96.14
28181;BME280;15464;50.988;10.318;2023-02-21T05:15:55;99099.69;;;7.21;96.58
28181;BME280;15464;50.988;10.318;2023-02-21T05:18:22;99094.75;;;7.17;96.14
28181;BME280;15464;50.988;10.318;2023-02-21T05:20:54;99101.81;;;7.16;96.78
28181;BME280;15464;50.988;10.318;2023-02-21T05:23:21;99095.16;;;7.11;96.96
28181;BME280;15464;50.988;10.318;2023-02-21T05:26:08;99099.16;;;7.16;97.43
28181;BME280;15464;50.988;10.318;2023-02-21T05:28:36;99093.47;;;7.10;97.57
28181;BME280;15464;50.988;10.318;2023-02-21T05:31:03;99092.63;;;7.09;98.00
28181;BME280;15464;50.988;10.318;2023-02-21T05:33:30;99095.59;;;7.05;98.09
28181;BME280;15464;50.988;10.318;2023-02-21T05:35:58;99089.22;;;7.07;98.48
28181;BME280;15464;50.988;10.318;2023-02-21T05:41:13;99095.34;;;7.08;98.71
28181;BME280;15464;50.988;10.318;2023-02-21T05:43:45;99086.50;;;7.09;98.53
28181;BME280;15464;50.988;10.318;2023-02-21T05:46:27;99076.78;;;7.09;98.76
28181;BME280;15464;50.988;10.318;2023-02-21T05:48:56;99078.50;;;7.10;98.37
28181;BME280;15464;50.988;10.318;2023-02-21T05:51:24;99068.97;;;7.08;98.65
28181;BME280;15464;50.988;10.318;2023-02-21T05:53:51;99076.69;;;7.11;98.34
28181;BME280;15464;50.988;10.318;2023-02-21T05:56:19;99075.94;;;7.09;98.48
28181;BME280;15464;50.988;10.318;2023-02-21T05:58:46;99075.94;;;7.09;98.45
28181;BME280;15464;50.988;10.318;2023-02-21T06:01:13;99075.75;;;7.12;97.97
28181;BME280;15464;50.988;10.318;2023-02-21T06:03:40;99072.38;;;7.10;97.88
28181;BME280;15464;50.988;10.318;2023-02-21T06:06:07;99073.22;;;7.10;98.11
28181;BME280;15464;50.988;10.318;2023-02-21T06:08:47;99074.06;;;7.11;98.11
28181;BME280;15464;50.988;10.318;2023-02-21T06:11:21;99082.06;;;7.09;98.34
28181;BME280;15464;50.988;10.318;2023-02-21T06:13:51;99076.69;;;7.11;98.36
28181;BME280;15464;50.988;10.318;2023-02-21T06:16:19;99070.47;;;7.12;98.09
28181;BME280;15464;50.988;10.318;2023-02-21T06:18:55;99080.81;;;7.15;97.84
28181;BME280;15464;50.988;10.318;2023-02-21T06:21:22;99083.34;;;7.16;97.80
28181;BME280;15464;50.988;10.318;2023-02-21T06:23:49;99078.16;;;7.15;97.58
28181;BME280;15464;50.988;10.318;2023-02-21T06:26:19;99092.19;;;7.15;97.56
28181;BME280;15464;50.988;10.318;2023-02-21T06:28:46;99092.94;;;7.17;97.53
28181;BME280;15464;50.988;10.318;2023-02-21T06:31:14;99094.75;;;7.17;97.52
28181;BME280;15464;50.988;10.318;2023-02-21T06:33:42;99106.44;;;7.13;97.57
28181;BME280;15464;50.988;10.318;2023-02-21T06:36:14;99105.59;;;7.12;97.60
28181;BME280;15464;50.988;10.318;2023-02-21T06:38:46;99107.50;;;7.10;97.20
28181;BME280;15464;50.988;10.318;2023-02-21T06:41:16;99106.31;;;7.14;97.29
28181;BME280;15464;50.988;10.318;2023-02-21T06:43:43;99108.22;;;7.12;97.35
28181;BME280;15464;50.988;10.318;2023-02-21T06:46:15;99110.66;;;7.15;97.14
28181;BME280;15464;50.988;10.318;2023-02-21T06:48:42;99111.59;;;7.14;97.19
28181;BME280;15464;50.988;10.318;2023-02-21T06:51:09;99116.34;;;7.09;97.30
28181;BME280;15464;50.988;10.318;2023-02-21T06:53:37;99120.16;;;7.05;97.73
28181;BME280;15464;50.988;10.318;2023-02-21T06:56:04;99124.88;;;7.13;97.28
28181;BME280;15464;50.988;10.318;2023-02-21T06:58:31;99125.97;;;7.10;97.51
28181;BME280;15464;50.988;10.318;2023-02-21T07:00:57;99121.63;;;7.09;97.51
28181;BME280;15464;50.988;10.318;2023-02-21T07:03:27;99120.69;;;7.10;97.31
28181;BME280;15464;50.988;10.318;2023-02-21T07:05:54;99126.69;;;7.12;97.59
28181;BME280;15464;50.988;10.318;2023-02-21T07:08:20;99127.66;;;7.11;97.80
28181;BME280;15464;50.988;10.318;2023-02-21T07:10:47;99125.13;;;7.10;97.42
28181;BME280;15464;50.988;10.318;2023-02-21T07:13:14;99132.81;;;7.13;97.30
28181;BME280;15464;50.988;10.318;2023-02-21T07:15:40;99125.53;;;7.16;97.17
28181;BME280;15464;50.988;10.318;2023-02-21T07:18:07;99128.19;;;7.16;96.75
28181;BME280;15464;50.988;10.318;2023-02-21T07:20:34;99132.50;;;7.17;96.72
28181;BME280;15464;50.988;10.318;2023-02-21T07:23:00;99136.09;;;7.16;96.64
28181;BME280;15464;50.988;10.318;2023-02-21T07:25:27;99138.31;;;7.22;96.80
28181;BME280;15464;50.988;10.318;2023-02-21T07:27:55;99137.13;;;7.26;96.93
28181;BME280;15464;50.988;10.318;2023-02-21T07:30:22;99138.41;;;7.34;96.56
28181;BME280;15464;50.988;10.318;2023-02-21T07:32:49;99138.22;;;7.37;96.40
28181;BME280;15464;50.988;10.318;2023-02-21T07:35:16;99139.25;;;7.34;95.76
28181;BME280;15464;50.988;10.318;2023-02-21T07:37:42;99150.22;;;7.41;96.00
28181;BME280;15464;50.988;10.318;2023-02-21T07:40:09;99140.94;;;7.48;96.06
28181;BME280;15464;50.988;10.318;2023-02-21T07:42:36;99136.72;;;7.45;95.23
28181;BME280;15464;50.988;10.318;2023-02-21T07:45:03;99142.41;;;7.52;95.27
28181;BME280;15464;50.988;10.318;2023-02-21T07:47:29;99155.28;;;7.56;95.39
28181;BME280;15464;50.988;10.318;2023-02-21T07:49:56;99152.34;;;7.61;94.98
28181;BME280;15464;50.988;10.318;2023-02-21T07:52:26;99152.34;;;7.61;94.69
28181;BME280;15464;50.988;10.318;2023-02-21T07:54:53;99161.09;;;7.61;94.76
28181;BME280;15464;50.988;10.318;2023-02-21T07:57:19;99167.00;;;7.65;94.48
28181;BME280;15464;50.988;10.318;2023-02-21T07:59:46;99165.41;;;7.62;94.19
28181;BME280;15464;50.988;10.318;2023-02-21T08:02:13;99167.84;;;7.65;94.34
28181;BME280;15464;50.988;10.318;2023-02-21T08:04:40;99169.81;;;7.75;93.95
28181;BME280;15464;50.988;10.318;2023-02-21T08:07:08;99170.50;;;7.65;94.13
28181;BME280;15464;50.988;10.318;2023-02-21T08:09:35;99178.06;;;7.70;94.75
28181;BME280;15464;50.988;10.318;2023-02-21T08:12:03;99167.63;;;7.68;94.53
28181;BME280;15464;50.988;10.318;2023-02-21T08:14:30;99171.31;;;7.79;94.35
28181;BME280;15464;50.988;10.318;2023-02-21T08:16:59;99162.88;;;7.86;94.00
28181;BME280;15464;50.988;10.318;2023-02-21T08:19:26;99164.75;;;7.84;94.33
28181;BME280;15464;50.988;10.318;2023-02-21T08:21:53;99170.66;;;7.88;94.31
28181;BME280;15464;50.988;10.318;2023-02-21T08:24:19;99179.44;;;7.88;94.13
28181;BME280;15464;50.988;10.318;2023-02-21T08:26:46;99173.59;;;7.96;94.02
28181;BME280;15464;50.988;10.318;2023-02-21T08:29:14;99173.06;;;8.03;93.56
28181;BME280;15464;50.988;10.318;2023-02-21T08:31:43;99179.47;;;8.12;92.79
28181;BME280;15464;50.988;10.318;2023-02-21T08:34:10;99178.41;;;8.15;92.78
28181;BME280;15464;50.988;10.318;2023-02-21T08:36:40;99178.22;;;8.18;92.38
28181;BME280;15464;50.988;10.318;2023-02-21T08:39:08;99167.66;;;8.18;92.73
28181;BME280;15464;50.988;10.318;2023-02-21T08:41:39;99173.78;;;8.18;92.69
28181;BME280;15464;50.988;10.318;2023-02-21T08:44:10;99170.06;;;8.21;92.59
28181;BME280;15464;50.988;10.318;2023-02-21T08:46:37;99169.94;;;8.35;92.91
28181;BME280;15464;50.988;10.318;2023-02-21T08:49:06;99169.94;;;8.35;92.29
28181;BME280;15464;50.988;10.318;2023-02-21T08:51:34;99182.22;;;8.36;91.92
28181;BME280;15464;50.988;10.318;2023-02-21T08:54:01;99179.22;;;8.40;92.00
28181;BME280;15464;50.988;10.318;2023-02-21T08:56:29;99185.34;;;8.41;92.06
28181;BME280;15464;50.988;10.318;2023-02-21T08:58:59;99184.84;;;8.36;91.41
28181;BME280;15464;50.988;10.318;2023-02-21T09:01:33;99188.97;;;8.27;91.17
28181;BME280;15464;50.988;10.318;2023-02-21T09:04:02;99187.91;;;8.42;92.09
28181;BME280;15464;50.988;10.318;2023-02-21T09:06:29;99189.75;;;8.53;92.02
28181;BME280;15464;50.988;10.318;2023-02-21T09:08:56;99180.41;;;8.60;91.13
28181;BME280;15464;50.988;10.318;2023-02-21T09:11:22;99187.09;;;8.53;91.44
28181;BME280;15464;50.988;10.318;2023-02-21T09:13:49;99185.91;;;8.57;91.72
28181;BME280;15464;50.988;10.318;2023-02-21T09:16:18;99185.19;;;8.55;91.82
28181;BME280;15464;50.988;10.318;2023-02-21T09:18:53;99181.53;;;8.45;90.74
28181;BME280;15464;50.988;10.318;2023-02-21T09:21:24;99177.78;;;8.60;91.44
28181;BME280;15464;50.988;10.318;2023-02-21T09:23:53;99184.78;;;8.72;91.27
28181;BME280;15464;50.988;10.318;2023-02-21T09:26:20;99176.75;;;8.74;90.75
28181;BME280;15464;50.988;10.318;2023-02-21T09:28:52;99176.91;;;8.83;91.00
28181;BME280;15464;50.988;10.318;2023-02-21T09:31:19;99180.50;;;8.82;90.64
28181;BME280;15464;50.988;10.318;2023-02-21T09:33:46;99184.63;;;8.86;90.31
28181;BME280;15464;50.988;10.318;2023-02-21T09:36:12;99183.63;;;8.87;90.12
28181;BME280;15464;50.988;10.318;2023-02-21T09:38:39;99178.63;;;8.96;90.25
28181;BME280;15464;50.988;10.318;2023-02-21T09:41:11;99173.06;;;8.87;88.97
28181;BME280;15464;50.988;10.318;2023-02-21T09:43:42;99173.91;;;8.88;90.17
28181;BME280;15464;50.988;10.318;2023-02-21T09:46:15;99181.16;;;8.97;90.15
28181;BME280;15464;50.988;10.318;2023-02-21T09:48:43;99178.06;;;9.03;89.69
28181;BME280;15464;50.988;10.318;2023-02-21T09:51:12;99179.63;;;9.06;89.26
28181;BME280;15464;50.988;10.318;2023-02-21T09:53:42;99182.50;;;9.03;89.20
28181;BME280;15464;50.988;10.318;2023-02-21T09:56:19;99181.13;;;8.86;88.85
28181;BME280;15464;50.988;10.318;2023-02-21T09:58:48;99180.22;;;8.98;89.69
28181;BME280;15464;50.988;10.318;2023-02-21T10:09:30;99190.94;;;9.08;89.34
28181;BME280;15464;50.988;10.318;2023-02-21T10:17:18;99187.81;;;9.14;89.13
28181;BME280;15464;50.988;10.318;2023-02-21T10:19:50;99188.09;;;9.22;88.89
28181;BME280;15464;50.988;10.318;2023-02-21T10:22:24;99181.88;;;9.34;88.43
28181;BME280;15464;50.988;10.318;2023-02-21T10:24:52;99180.91;;;9.24;87.64
28181;BME280;15464;50.988;10.318;2023-02-21T10:27:25;99188.84;;;9.35;88.53
28181;BME280;15464;50.988;10.318;2023-02-21T10:30:05;99188.13;;;9.44;88.71
28181;BME280;15464;50.988;10.318;2023-02-21T10:32:36;99194.38;;;9.43;87.80
28181;BME280;15464;50.988;10.318;2023-02-21T10:35:03;99198.34;;;9.38;88.69
28181;BME280;15464;50.988;10.318;2023-02-21T10:40:38;99191.50;;;9.46;88.22
28181;BME280;15464;50.988;10.318;2023-02-21T10:43:04;99200.66;;;9.42;87.87
28181;BME280;15464;50.988;10.318;2023-02-21T10:45:39;99200.88;;;9.39;88.69
28181;BME280;15464;50.988;10.318;2023-02-21T10:48:12;99199.72;;;9.54;88.44
28181;BME280;15464;50.988;10.318;2023-02-21T10:50:49;99197.56;;;9.59;88.35
28181;BME280;15464;50.988;10.318;2023-02-21T10:53:29;99194.66;;;9.62;88.36
28181;BME280;15464;50.988;10.318;2023-02-21T10:58:48;99195.41;;;9.87;87.95
28181;BME280;15464;50.988;10.318;2023-02-21T11:04:03;99198.50;;;9.81;88.86
28181;BME280;15464;50.988;10.318;2023-02-21T11:06:38;99192.63;;;9.77;89.80
28181;BME280;15464;50.988;10.318;2023-02-21T11:14:29;99190.94;;;9.87;89.10
28181;BME280;15464;50.988;10.318;2023-02-21T11:20:16;99177.69;;;9.76;89.99
28181;BME280;15464;50.988;10.318;2023-02-21T11:22:46;99173.47;;;9.96;90.06
28181;BME280;15464;50.988;10.318;2023-02-21T11:25:31;99173.47;;;10.07;89.59
28181;BME280;15464;50.988;10.318;2023-02-21T11:28:16;99168.44;;;9.93;89.32
28181;BME280;15464;50.988;10.318;2023-02-21T11:33:22;99164.78;;;10.16;89.44
28181;BME280;15464;50.988;10.318;2023-02-21T11:35:50;99163.72;;;10.30;89.17
28181;BME280;15464;50.988;10.318;2023-02-21T11:40:56;99158.97;;;10.44;87.20
28181;BME280;15464;50.988;10.318;2023-02-21T11:43:33;99147.63;;;10.54;87.73
28181;BME280;15464;50.988;10.318;2023-02-21T11:51:46;99130.22;;;10.93;86.48
28181;BME280;15464;50.988;10.318;2023-02-21T11:54:14;99131.50;;;10.98;85.86
28181;BME280;15464;50.988;10.318;2023-02-21T11:56:48;99120.56;;;11.12;84.91
28181;BME280;15464;50.988;10.318;2023-02-21T11:59:22;99112.25;;;11.26;84.86
28181;BME280;15464;50.988;10.318;2023-02-21T12:05:21;99110.13;;;11.20;85.14
28181;BME280;15464;50.988;10.318;2023-02-21T12:13:44;99103.28;;;11.18;83.25
28181;BME280;15464;50.988;10.318;2023-02-21T12:21:59;99079.72;;;11.55;83.12
28181;BME280;15464;50.988;10.318;2023-02-21T12:48:54;99065.84;;;11.51;81.75
28181;BME280;15464;50.988;10.318;2023-02-21T12:51:32;99067.50;;;11.43;81.68
28181;BME280;15464;50.988;10.318;2023-02-21T12:54:05;99062.34;;;11.51;81.96
28181;BME280;15464;50.988;10.318;2023-02-21T12:56:44;99055.16;;;11.72;81.20
28181;BME280;15464;50.988;10.318;2023-02-21T13:01:52;99057.19;;;11.59;81.26
28181;BME280;15464;50.988;10.318;2023-02-21T13:04:31;99048.75;;;11.44;80.55
28181;BME280;15464;50.988;10.318;2023-02-21T13:07:05;99049.66;;;11.64;81.82
28181;BME280;15464;50.988;10.318;2023-02-21T13:10:03;99039.28;;;11.51;81.21
28181;BME280;15464;50.988;10.318;2023-02-21T13:17:38;99035.41;;;11.65;80.92
28181;BME280;15464;50.988;10.318;2023-02-21T13:20:09;99037.09;;;11.66;81.07
28181;BME280;15464;50.988;10.318;2023-02-21T13:28:35;99029.31;;;11.74;81.43
28181;BME280;15464;50.988;10.318;2023-02-21T13:31:05;99030.16;;;11.84;80.71
28181;BME280;15464;50.988;10.318;2023-02-21T13:33:41;99022.91;;;11.86;79.86
28181;BME280;15464;50.988;10.318;2023-02-21T13:38:59;99026.66;;;11.74;80.16
28181;BME280;15464;50.988;10.318;2023-02-21T13:41:29;99023.47;;;11.90;79.45
28181;BME280;15464;50.988;10.318;2023-02-21T13:43:59;99017.59;;;11.96;80.00
28181;BME280;15464;50.988;10.318;2023-02-21T13:52:36;99013.59;;;11.71;79.34
28181;BME280;15464;50.988;10.318;2023-02-21T14:16:31;98994.66;;;11.85;79.06
28181;BME280;15464;50.988;10.318;2023-02-21T14:19:07;98995.47;;;11.76;79.45
28181;BME280;15464;50.988;10.318;2023-02-21T14:21:44;98998.84;;;11.78;79.52
28181;BME280;15464;50.988;10.318;2023-02-21T14:24:15;98995.75;;;11.83;79.45
28181;BME280;15464;50.988;10.318;2023-02-21T14:37:15;98995.72;;;11.73;80.52
28181;BME280;15464;50.988;10.318;2023-02-21T14:39:51;98999.47;;;11.70;80.39
28181;BME280;15464;50.988;10.318;2023-02-21T15:04:50;98987.84;;;11.62;81.00
28181;BME280;15464;50.988;10.318;2023-02-21T15:10:20;98985.59;;;11.48;81.28
28181;BME280;15464;50.988;10.318;2023-02-21T15:12:59;98982.50;;;11.43;81.76
28181;BME280;15464;50.988;10.318;2023-02-21T15:15:40;98987.34;;;11.38;81.93
28181;BME280;15464;50.988;10.318;2023-02-21T15:18:23;98996.22;;;11.48;81.83
28181;BME280;15464;50.988;10.318;2023-02-21T15:23:37;98990.91;;;11.48;81.87
28181;BME280;15464;50.988;10.318;2023-02-21T15:29:25;98990.19;;;11.46;81.45
28181;BME280;15464;50.988;10.318;2023-02-21T15:31:54;98991.28;;;11.43;81.68
28181;BME280;15464;50.988;10.318;2023-02-21T15:34:29;98988.06;;;11.40;81.66
28181;BME280;15464;50.988;10.318;2023-02-21T15:37:15;98992.81;;;11.36;81.85
28181;BME280;15464;50.988;10.318;2023-02-21T15:39:49;98983.03;;;11.37;82.09
28181;BME280;15464;50.988;10.318;2023-02-21T15:42:21;98990.56;;;11.31;82.51
28181;BME280;15464;50.988;10.318;2023-02-21T15:44:59;98978.53;;;11.27;82.45
28181;BME280;15464;50.988;10.318;2023-02-21T15:47:28;98986.25;;;11.30;82.50
28181;BME280;15464;50.988;10.318;2023-02-21T15:55:27;98988.41;;;11.16;82.85
28181;BME280;15464;50.988;10.318;2023-02-21T16:00:31;98991.91;;;11.16;83.14
28181;BME280;15464;50.988;10.318;2023-02-21T16:06:28;98987.91;;;11.01;83.58
28181;BME280;15464;50.988;10.318;2023-02-21T16:14:17;98983.66;;;10.89;84.38
28181;BME280;15464;50.988;10.318;2023-02-21T16:16:47;98980.28;;;10.87;84.44
28181;BME280;15464;50.988;10.318;2023-02-21T16:19:21;98987.56;;;10.85;84.67
28181;BME280;15464;50.988;10.318;2023-02-21T16:21:48;98993.91;;;10.73;85.33
28181;BME280;15464;50.988;10.318;2023-02-21T16:24:31;98992.34;;;10.70;85.58
28181;BME280;15464;50.988;10.318;2023-02-21T16:27:07;98986.50;;;10.67;85.74
28181;BME280;15464;50.988;10.318;2023-02-21T16:29:34;98994.69;;;10.64;85.94
28181;BME280;15464;50.988;10.318;2023-02-21T16:32:01;98991.34;;;10.62;86.20
28181;BME280;15464;50.988;10.318;2023-02-21T16:34:31;98994.97;;;10.61;86.19
28181;BME280;15464;50.988;10.318;2023-02-21T16:37:03;98993.53;;;10.57;86.46
28181;BME280;15464;50.988;10.318;2023-02-21T16:39:30;98999.09;;;10.54;86.43
28181;BME280;15464;50.988;10.318;2023-02-21T16:41:57;99007.19;;;10.52;86.85
28181;BME280;15464;50.988;10.318;2023-02-21T16:44:25;99000.59;;;10.46;87.02
28181;BME280;15464;50.988;10.318;2023-02-21T16:46:52;99007.13;;;10.42;87.23
28181;BME280;15464;50.988;10.318;2023-02-21T16:49:19;99012.44;;;10.42;87.53
28181;BME280;15464;50.988;10.318;2023-02-21T16:51:46;99010.13;;;10.38;87.63
28181;BME280;15464;50.988;10.318;2023-02-21T16:54:13;99014.88;;;10.34;88.18
28181;BME280;15464;50.988;10.318;2023-02-21T16:56:43;99018.03;;;10.28;88.40
28181;BME280;15464;50.988;10.318;2023-02-21T16:59:13;99016.78;;;10.32;88.32
28181;BME280;15464;50.988;10.318;2023-02-21T17:01:40;99023.78;;;10.33;88.20
28181;BME280;15464;50.988;10.318;2023-02-21T17:04:35;99029.59;;;10.27;88.64
28181;BME280;15464;50.988;10.318;2023-02-21T17:07:03;99028.56;;;10.39;87.79
28181;BME280;15464;50.988;10.318;2023-02-21T17:09:31;99030.38;;;10.39;88.20
28181;BME280;15464;50.988;10.318;2023-02-21T17:12:05;99030.50;;;10.37;88.41
28181;BME280;15464;50.988;10.318;2023-02-21T17:14:33;99032.38;;;10.26;88.60